createdAt,value
2017-06-29T00:01:11.332Z,58.30
2017-06-29T00:03:39.787Z,58.20
2017-06-29T00:06:08.270Z,58.10
2017-06-29T00:08:36.698Z,58.20
2017-06-29T00:11:05.130Z,58.10
2017-06-29T00:13:33.609Z,58.10
2017-06-29T00:16:02.094Z,58.00
2017-06-29T00:18:30.540Z,58.00
2017-06-29T00:20:58.967Z,58.00
2017-06-29T00:23:27.433Z,57.90
2017-06-29T00:25:55.862Z,57.80
2017-06-29T00:28:25.264Z,58.00
2017-06-29T00:30:53.779Z,57.70
2017-06-29T00:33:22.211Z,57.80
2017-06-29T00:35:50.683Z,57.80
2017-06-29T00:38:19.111Z,57.80
2017-06-29T00:40:47.664Z,57.70
2017-06-29T00:43:16.149Z,57.70
2017-06-29T00:45:44.627Z,57.60
2017-06-29T00:48:13.058Z,57.50
2017-06-29T00:50:41.496Z,57.50
2017-06-29T00:53:10.896Z,57.50
2017-06-29T00:55:39.326Z,57.40
2017-06-29T00:58:07.920Z,57.50
2017-06-29T01:00:36.056Z,57.50
2017-06-29T01:03:04.712Z,57.40
2017-06-29T01:05:33.771Z,57.30
2017-06-29T01:08:02.365Z,57.30
2017-06-29T01:10:30.793Z,57.20
2017-06-29T01:12:59.271Z,57.20
2017-06-29T01:15:27.700Z,57.20
2017-06-29T01:17:56.182Z,57.10
2017-06-29T01:20:25.443Z,57.10
2017-06-29T01:22:53.908Z,57.10
2017-06-29T01:25:22.450Z,57.00
2017-06-29T01:27:50.962Z,57.10
2017-06-29T01:30:19.463Z,57.00
2017-06-29T01:32:48.027Z,57.00
2017-06-29T01:35:16.710Z,57.00
2017-06-29T01:37:45.195Z,57.00
2017-06-29T01:40:13.632Z,57.00
2017-06-29T01:42:42.154Z,57.00
2017-06-29T01:45:10.665Z,57.00
2017-06-29T01:47:39.124Z,56.90
2017-06-29T01:50:08.320Z,56.80
2017-06-29T01:52:36.752Z,56.70
2017-06-29T01:55:05.230Z,56.80
2017-06-29T01:57:32.993Z,56.70
2017-06-29T02:00:01.723Z,56.70
2017-06-29T02:02:30.150Z,56.60
2017-06-29T02:04:58.585Z,56.60
2017-06-29T02:07:27.167Z,56.70
2017-06-29T02:09:55.632Z,56.60
2017-06-29T02:12:24.098Z,56.60
2017-06-29T02:14:52.608Z,56.60
2017-06-29T02:17:21.298Z,56.50
2017-06-29T02:19:50.287Z,56.50
2017-06-29T02:22:18.798Z,56.40
2017-06-29T02:24:47.261Z,56.40
2017-06-29T02:27:16.462Z,56.40
2017-06-29T02:29:44.890Z,56.40
2017-06-29T02:32:13.718Z,56.30
2017-06-29T02:34:42.170Z,56.40
2017-06-29T02:37:10.780Z,56.30
2017-06-29T02:39:39.207Z,56.30
2017-06-29T02:42:07.638Z,56.30
2017-06-29T02:44:36.097Z,56.20
2017-06-29T02:47:05.464Z,56.30
2017-06-29T02:49:33.944Z,56.20
2017-06-29T02:52:02.424Z,56.20
2017-06-29T02:54:30.838Z,56.20
2017-06-29T02:56:59.349Z,56.20
2017-06-29T02:59:27.979Z,56.30
2017-06-29T03:01:56.404Z,56.20
2017-06-29T03:04:24.998Z,56.30
2017-06-29T03:06:54.204Z,56.30
2017-06-29T03:09:22.643Z,56.20
2017-06-29T03:11:51.157Z,56.20
2017-06-29T03:14:19.616Z,56.20
2017-06-29T03:16:48.085Z,56.20
2017-06-29T03:19:16.562Z,56.30
2017-06-29T03:21:45.023Z,56.20
2017-06-29T03:24:13.487Z,57.00
2017-06-29T03:26:41.986Z,56.30
2017-06-29T03:29:10.414Z,56.30
2017-06-29T03:31:38.846Z,56.20
2017-06-29T03:34:07.313Z,56.20
2017-06-29T03:36:35.757Z,56.20
2017-06-29T03:39:04.338Z,56.60
2017-06-29T03:41:32.765Z,56.30
2017-06-29T03:44:01.202Z,56.30
2017-06-29T03:46:29.683Z,56.30
2017-06-29T03:48:58.141Z,56.30
2017-06-29T03:51:26.745Z,56.30
2017-06-29T03:53:55.433Z,56.30
2017-06-29T03:56:24.120Z,56.30
2017-06-29T03:58:53.423Z,56.40
2017-06-29T04:01:21.910Z,56.40
2017-06-29T04:03:50.327Z,56.40
2017-06-29T04:06:18.860Z,56.40
2017-06-29T04:08:47.549Z,56.40
2017-06-29T04:11:15.968Z,56.40
2017-06-29T04:13:44.400Z,56.30
2017-06-29T04:16:12.877Z,56.40
2017-06-29T04:18:41.358Z,56.50
2017-06-29T04:21:09.785Z,56.50
2017-06-29T04:23:38.358Z,56.50
2017-06-29T04:26:06.983Z,56.40
2017-06-29T04:28:35.521Z,56.40
2017-06-29T04:31:03.951Z,56.40
2017-06-29T04:33:32.587Z,56.40
2017-06-29T04:36:01.015Z,56.40
2017-06-29T04:38:29.451Z,56.40
2017-06-29T04:40:57.926Z,56.30
2017-06-29T04:43:26.347Z,56.50
2017-06-29T04:45:55.344Z,56.30
2017-06-29T04:48:23.784Z,56.40
2017-06-29T04:50:52.220Z,56.40
2017-06-29T04:53:20.948Z,56.40
2017-06-29T04:55:50.270Z,56.40
2017-06-29T04:58:18.705Z,56.40
2017-06-29T05:00:47.412Z,56.50
2017-06-29T05:03:16.096Z,56.60
2017-06-29T05:05:44.769Z,56.60
2017-06-29T05:08:13.347Z,56.50
2017-06-29T05:10:41.850Z,56.40
2017-06-29T05:13:10.290Z,56.50
2017-06-29T05:15:38.774Z,56.50
2017-06-29T05:18:07.214Z,56.50
2017-06-29T05:20:35.646Z,56.40
2017-06-29T05:23:04.283Z,56.40
2017-06-29T05:25:32.714Z,56.50
2017-06-29T05:28:01.141Z,56.50
2017-06-29T05:30:29.801Z,56.50
2017-06-29T05:32:58.995Z,56.50
2017-06-29T05:35:27.428Z,56.40
2017-06-29T05:37:55.958Z,56.40
2017-06-29T05:40:24.392Z,56.30
2017-06-29T05:42:52.830Z,56.50
2017-06-29T05:45:21.304Z,56.40
2017-06-29T05:47:50.507Z,56.50
2017-06-29T05:50:18.970Z,56.50
2017-06-29T05:52:47.455Z,56.60
2017-06-29T05:55:15.880Z,56.60
2017-06-29T05:57:44.424Z,56.80
2017-06-29T06:00:13.679Z,56.90
2017-06-29T06:02:42.116Z,56.90
2017-06-29T06:05:10.550Z,56.90
2017-06-29T06:07:39.039Z,57.00
2017-06-29T06:10:07.667Z,57.10
2017-06-29T06:12:36.101Z,57.30
2017-06-29T06:15:04.540Z,57.30
2017-06-29T06:17:33.046Z,57.30
2017-06-29T06:20:01.601Z,57.20
2017-06-29T06:22:30.994Z,57.20
2017-06-29T06:24:59.497Z,57.10
2017-06-29T06:27:27.935Z,57.00
2017-06-29T06:29:56.368Z,57.00
2017-06-29T06:32:24.831Z,56.90
2017-06-29T06:34:53.385Z,56.90
2017-06-29T06:37:21.927Z,56.90
2017-06-29T06:39:50.417Z,56.80
2017-06-29T06:42:19.273Z,56.80
2017-06-29T06:44:47.941Z,56.80
2017-06-29T06:47:16.398Z,56.70
2017-06-29T06:49:44.871Z,56.70
2017-06-29T06:52:13.334Z,56.70
2017-06-29T06:54:41.765Z,56.70
2017-06-29T06:57:10.169Z,56.70
2017-06-29T06:59:38.640Z,57.30
2017-06-29T07:02:07.232Z,56.70
2017-06-29T07:04:35.700Z,56.30
2017-06-29T07:07:04.293Z,57.50
2017-06-29T07:09:32.732Z,56.80
2017-06-29T07:12:01.211Z,56.00
2017-06-29T07:14:29.638Z,56.00
2017-06-29T07:16:58.276Z,55.90
2017-06-29T07:19:26.990Z,55.70
2017-06-29T07:21:55.414Z,55.40
2017-06-29T07:24:23.911Z,55.30
2017-06-29T07:26:52.336Z,55.30
2017-06-29T07:29:20.774Z,55.50
2017-06-29T07:31:49.265Z,55.80
2017-06-29T07:34:17.696Z,55.80
2017-06-29T07:36:46.139Z,55.70
2017-06-29T07:39:14.603Z,55.60
2017-06-29T07:41:43.091Z,55.40
2017-06-29T07:44:11.774Z,55.10
2017-06-29T07:46:40.238Z,55.10
2017-06-29T07:49:08.836Z,55.60
2017-06-29T07:51:37.423Z,55.70
2017-06-29T07:54:06.014Z,55.90
2017-06-29T07:56:34.438Z,57.10
2017-06-29T07:59:02.868Z,55.90
2017-06-29T08:01:31.358Z,55.80
2017-06-29T08:04:00.565Z,56.60
2017-06-29T08:06:28.996Z,56.50
2017-06-29T08:08:57.474Z,56.10
2017-06-29T08:11:25.933Z,56.00
2017-06-29T08:13:54.372Z,55.30
2017-06-29T08:16:22.860Z,55.00
2017-06-29T08:18:52.046Z,55.50
2017-06-29T08:21:20.119Z,54.60
2017-06-29T08:23:48.579Z,54.90
2017-06-29T08:26:17.034Z,54.60
2017-06-29T08:28:45.513Z,54.60
2017-06-29T08:31:14.708Z,54.50
2017-06-29T08:33:43.189Z,54.20
2017-06-29T08:36:11.875Z,54.80
2017-06-29T08:38:40.530Z,54.40
2017-06-29T08:41:09.154Z,55.50
2017-06-29T08:43:37.600Z,54.60
2017-06-29T08:46:06.108Z,55.20
2017-06-29T08:48:34.586Z,55.20
2017-06-29T08:51:03.026Z,55.60
2017-06-29T08:53:32.228Z,55.90
2017-06-29T08:56:01.458Z,56.00
2017-06-29T08:58:29.872Z,55.90
2017-06-29T09:00:58.529Z,56.40
2017-06-29T09:03:26.990Z,56.80
2017-06-29T09:05:55.410Z,56.90
2017-06-29T09:08:23.918Z,57.00
2017-06-29T09:10:52.349Z,57.10
2017-06-29T09:13:21.035Z,56.10
2017-06-29T09:15:49.625Z,56.80
2017-06-29T09:18:18.060Z,57.00
2017-06-29T09:20:46.497Z,55.90
2017-06-29T09:23:15.125Z,55.70
2017-06-29T09:25:43.559Z,56.00
2017-06-29T09:28:12.752Z,56.20
2017-06-29T09:30:41.241Z,56.20
2017-06-29T09:33:10.613Z,56.70
2017-06-29T09:35:39.030Z,56.70
2017-06-29T09:38:07.546Z,57.10
2017-06-29T09:40:36.703Z,57.30
2017-06-29T09:43:05.228Z,56.50
2017-06-29T09:45:33.690Z,56.50
2017-06-29T09:48:02.117Z,55.60
2017-06-29T09:50:30.592Z,55.00
2017-06-29T09:52:59.023Z,55.30
2017-06-29T09:55:27.689Z,57.00
2017-06-29T09:57:56.115Z,56.30
2017-06-29T10:00:24.549Z,56.20
2017-06-29T10:02:53.829Z,55.40
2017-06-29T10:05:22.345Z,54.80
2017-06-29T10:07:51.056Z,54.60
2017-06-29T10:10:19.739Z,54.40
2017-06-29T10:12:48.236Z,53.40
2017-06-29T10:15:16.713Z,53.90
2017-06-29T10:17:45.152Z,53.70
2017-06-29T10:20:14.335Z,54.00
2017-06-29T10:22:42.865Z,54.00
2017-06-29T10:25:11.292Z,53.60
2017-06-29T10:27:39.731Z,53.10
2017-06-29T10:30:08.227Z,52.90
2017-06-29T10:32:36.685Z,53.20
2017-06-29T10:35:05.172Z,53.30
2017-06-29T10:37:33.613Z,53.00
2017-06-29T10:40:02.107Z,52.50
2017-06-29T10:42:30.545Z,52.70
2017-06-29T10:44:59.135Z,53.10
2017-06-29T10:47:27.670Z,52.00
2017-06-29T10:49:56.665Z,51.60
2017-06-29T10:52:25.092Z,50.80
2017-06-29T10:54:53.574Z,52.00
2017-06-29T10:57:22.003Z,51.40
2017-06-29T10:59:50.529Z,55.60
2017-06-29T11:02:19.070Z,50.50
2017-06-29T11:04:47.761Z,50.80
2017-06-29T11:07:16.185Z,50.10
2017-06-29T11:09:45.133Z,49.10
2017-06-29T11:12:13.662Z,48.90
2017-06-29T11:14:42.107Z,49.80
2017-06-29T11:17:11.010Z,49.30
2017-06-29T11:19:40.394Z,49.60
2017-06-29T11:22:08.876Z,49.60
2017-06-29T11:24:37.575Z,49.40
2017-06-29T11:27:05.999Z,49.20
2017-06-29T11:29:34.631Z,49.70
2017-06-29T11:32:03.070Z,50.40
2017-06-29T11:34:31.777Z,50.20
2017-06-29T11:37:00.246Z,49.80
2017-06-29T11:39:28.858Z,49.50
2017-06-29T11:41:57.347Z,49.70
2017-06-29T11:44:26.025Z,49.70
2017-06-29T11:46:54.453Z,49.90
2017-06-29T11:49:22.927Z,50.00
2017-06-29T11:51:51.517Z,49.90
2017-06-29T11:54:19.971Z,50.00
2017-06-29T11:56:48.448Z,50.30
2017-06-29T11:59:17.695Z,49.30
2017-06-29T12:01:46.160Z,49.20
2017-06-29T12:04:14.638Z,50.00
2017-06-29T12:06:43.197Z,48.90
2017-06-29T12:09:11.727Z,48.20
2017-06-29T12:11:41.834Z,48.60
2017-06-29T12:14:10.433Z,48.80
2017-06-29T12:16:38.875Z,49.90
2017-06-29T12:19:07.307Z,50.10
2017-06-29T12:21:36.010Z,50.80
2017-06-29T12:24:04.897Z,50.30
2017-06-29T12:26:33.363Z,50.50
2017-06-29T12:29:02.991Z,49.60
2017-06-29T12:31:31.471Z,49.10
2017-06-29T12:33:59.908Z,49.90
2017-06-29T12:36:28.377Z,49.90
2017-06-29T12:38:56.959Z,48.30
2017-06-29T12:41:25.498Z,48.00
2017-06-29T12:43:54.011Z,48.30
2017-06-29T12:46:22.439Z,47.30
2017-06-29T12:48:50.948Z,47.20
2017-06-29T12:51:20.375Z,46.70
2017-06-29T12:53:48.796Z,46.70
2017-06-29T12:56:17.271Z,46.80
2017-06-29T12:58:45.719Z,47.50
2017-06-29T13:01:14.356Z,47.60
2017-06-29T13:03:42.850Z,45.90
2017-06-29T13:06:11.026Z,44.70
2017-06-29T13:08:39.607Z,45.90
2017-06-29T13:11:08.970Z,46.30
2017-06-29T13:13:37.400Z,45.70
2017-06-29T13:16:05.974Z,45.50
2017-06-29T13:18:34.465Z,43.90
2017-06-29T13:21:03.548Z,44.30
2017-06-29T13:23:32.767Z,49.20
2017-06-29T13:26:01.218Z,48.40
2017-06-29T13:28:29.726Z,48.20
2017-06-29T13:30:58.192Z,48.60
2017-06-29T13:33:26.295Z,49.10
2017-06-29T13:35:54.809Z,49.50
2017-06-29T13:38:23.531Z,50.60
2017-06-29T13:40:53.100Z,51.40
2017-06-29T13:43:21.823Z,51.60
2017-06-29T13:45:50.427Z,51.90
2017-06-29T13:48:19.810Z,53.10
2017-06-29T13:50:48.497Z,53.20
2017-06-29T13:53:16.939Z,53.20
2017-06-29T13:55:45.371Z,53.60
2017-06-29T13:58:13.849Z,53.60
2017-06-29T14:00:43.051Z,52.10
2017-06-29T14:03:11.522Z,52.10
2017-06-29T14:05:40.740Z,51.90
2017-06-29T14:08:09.216Z,51.80
2017-06-29T14:10:38.133Z,52.00
2017-06-29T14:13:06.664Z,52.10
2017-06-29T14:15:36.336Z,51.70
2017-06-29T14:18:04.780Z,51.50
2017-06-29T14:20:33.292Z,53.10
2017-06-29T14:23:01.736Z,50.80
2017-06-29T14:25:30.405Z,49.40
2017-06-29T14:27:58.881Z,47.50
2017-06-29T14:30:27.325Z,48.30
2017-06-29T14:32:55.755Z,48.10
2017-06-29T14:35:25.012Z,47.70
2017-06-29T14:37:53.455Z,47.70
2017-06-29T14:40:21.936Z,47.20
2017-06-29T14:42:50.517Z,46.20
2017-06-29T14:45:18.973Z,46.80
2017-06-29T14:47:47.454Z,47.50
2017-06-29T14:50:15.901Z,47.90
2017-06-29T14:52:44.375Z,48.10
2017-06-29T14:55:13.001Z,46.30
2017-06-29T14:57:42.396Z,46.30
2017-06-29T15:00:10.949Z,46.30
2017-06-29T15:02:39.461Z,46.90
2017-06-29T15:05:08.487Z,46.90
2017-06-29T15:07:37.138Z,47.10
2017-06-29T15:10:05.578Z,46.10
2017-06-29T15:12:34.059Z,45.90
2017-06-29T15:15:02.587Z,46.30
2017-06-29T15:17:31.196Z,46.10
2017-06-29T15:19:59.633Z,46.10
2017-06-29T15:22:28.189Z,46.10
2017-06-29T15:24:56.713Z,45.50
2017-06-29T15:27:25.215Z,45.60
2017-06-29T15:29:53.475Z,45.90
2017-06-29T15:32:22.751Z,45.80
2017-06-29T15:34:51.471Z,45.20
2017-06-29T15:37:20.101Z,44.90
2017-06-29T15:39:48.732Z,44.80
2017-06-29T15:42:18.062Z,44.90
2017-06-29T15:44:46.496Z,44.90
2017-06-29T15:47:15.009Z,44.40
2017-06-29T15:49:43.572Z,44.40
2017-06-29T15:52:12.008Z,44.70
2017-06-29T15:54:40.652Z,44.90
2017-06-29T15:57:09.165Z,45.00
2017-06-29T15:59:37.610Z,45.30
2017-06-29T16:02:06.845Z,45.40
2017-06-29T16:04:35.339Z,45.40
2017-06-29T16:07:03.791Z,45.40
2017-06-29T16:09:32.251Z,45.30
2017-06-29T16:12:00.733Z,45.60
2017-06-29T16:14:30.119Z,45.60
2017-06-29T16:16:58.772Z,45.60
2017-06-29T16:19:27.230Z,45.80
2017-06-29T16:21:55.725Z,46.20
2017-06-29T16:24:24.251Z,46.50
2017-06-29T16:26:53.243Z,46.60
2017-06-29T16:29:21.715Z,46.90
2017-06-29T16:31:50.191Z,47.00
2017-06-29T16:34:18.791Z,47.10
2017-06-29T16:36:47.472Z,47.40
2017-06-29T16:39:15.900Z,47.50
2017-06-29T16:41:44.392Z,47.70
2017-06-29T16:44:12.883Z,47.60
2017-06-29T16:46:41.373Z,47.60
2017-06-29T16:49:09.829Z,47.70
2017-06-29T16:51:38.317Z,47.90
2017-06-29T16:54:06.782Z,47.60
2017-06-29T16:56:35.428Z,47.60
2017-06-29T16:59:04.062Z,47.40
2017-06-29T17:01:32.524Z,49.20
2017-06-29T17:04:00.965Z,47.70
2017-06-29T17:06:29.491Z,47.60
2017-06-29T17:08:57.947Z,47.60
2017-06-29T17:11:26.619Z,47.60
2017-06-29T17:13:55.056Z,48.00
2017-06-29T17:16:23.515Z,48.30
2017-06-29T17:18:52.059Z,48.40
2017-06-29T17:21:20.500Z,48.60
2017-06-29T17:23:49.002Z,49.40
2017-06-29T17:26:17.456Z,48.70
2017-06-29T17:28:45.945Z,48.80
2017-06-29T17:31:14.466Z,48.90
2017-06-29T17:33:43.151Z,48.90
2017-06-29T17:36:11.675Z,48.60
2017-06-29T17:38:40.215Z,48.80
2017-06-29T17:41:08.656Z,49.00
2017-06-29T17:43:37.243Z,49.00
2017-06-29T17:46:05.969Z,49.10
2017-06-29T17:48:34.608Z,49.10
2017-06-29T17:51:03.051Z,49.20
2017-06-29T17:53:31.523Z,49.20
2017-06-29T17:56:00.093Z,49.30
2017-06-29T17:58:28.539Z,49.30
2017-06-29T18:00:57.001Z,49.40
2017-06-29T18:03:25.541Z,49.40
2017-06-29T18:05:54.537Z,49.50
2017-06-29T18:08:23.023Z,49.50
2017-06-29T18:10:51.610Z,49.20
2017-06-29T18:13:20.897Z,49.30
2017-06-29T18:15:49.463Z,49.40
2017-06-29T18:18:17.926Z,49.40
2017-06-29T18:20:46.607Z,49.30
2017-06-29T18:23:15.127Z,49.40
2017-06-29T18:25:43.604Z,49.50
2017-06-29T18:28:12.085Z,50.40
2017-06-29T18:30:40.566Z,49.70
2017-06-29T18:33:09.207Z,49.80
2017-06-29T18:35:37.678Z,49.80
2017-06-29T18:38:06.270Z,49.80
2017-06-29T18:40:34.957Z,49.90
2017-06-29T18:43:03.552Z,49.90
2017-06-29T18:45:32.026Z,49.90
2017-06-29T18:48:00.529Z,49.90
2017-06-29T18:50:29.082Z,50.00
2017-06-29T18:52:57.743Z,50.00
2017-06-29T18:55:26.362Z,50.00
2017-06-29T18:57:54.833Z,50.00
2017-06-29T19:00:23.524Z,50.00
2017-06-29T19:02:52.208Z,50.00
2017-06-29T19:05:20.892Z,50.00
2017-06-29T19:07:49.378Z,50.00
2017-06-29T19:10:17.852Z,50.00
2017-06-29T19:12:46.539Z,50.00
2017-06-29T19:15:14.856Z,50.00
2017-06-29T19:17:43.397Z,50.00
2017-06-29T19:20:11.845Z,50.00
2017-06-29T19:22:40.340Z,49.90
2017-06-29T19:25:08.790Z,50.00
2017-06-29T19:27:37.352Z,50.00
2017-06-29T19:30:05.905Z,50.10
2017-06-29T19:32:34.799Z,50.10
2017-06-29T19:35:03.340Z,49.90
2017-06-29T19:37:32.043Z,49.90
2017-06-29T19:40:00.477Z,50.10
2017-06-29T19:42:28.914Z,50.10
2017-06-29T19:44:57.409Z,50.10
2017-06-29T19:47:25.929Z,50.10
2017-06-29T19:49:54.616Z,50.00
2017-06-29T19:52:23.317Z,50.00
2017-06-29T19:54:52.601Z,50.00
2017-06-29T19:57:21.046Z,50.00
2017-06-29T19:59:49.554Z,50.10
2017-06-29T20:02:18.060Z,50.10
2017-06-29T20:04:46.546Z,50.20
2017-06-29T20:07:15.332Z,50.10
2017-06-29T20:09:43.991Z,50.00
2017-06-29T20:12:12.677Z,49.90
2017-06-29T20:14:41.124Z,49.80
2017-06-29T20:17:09.562Z,49.80
2017-06-29T20:19:38.326Z,49.80
2017-06-29T20:22:06.763Z,49.60
2017-06-29T20:24:35.207Z,49.50
2017-06-29T20:27:03.695Z,49.40
2017-06-29T20:29:32.134Z,49.30
2017-06-29T20:32:00.582Z,49.30
2017-06-29T20:34:29.595Z,49.20
2017-06-29T20:36:58.034Z,49.10
2017-06-29T20:39:26.489Z,49.00
2017-06-29T20:41:55.200Z,49.10
2017-06-29T20:44:23.895Z,49.00
2017-06-29T20:46:53.211Z,49.10
2017-06-29T20:49:21.688Z,49.10
2017-06-29T20:51:50.134Z,49.10
2017-06-29T20:54:18.579Z,49.10
2017-06-29T20:56:47.072Z,49.10
2017-06-29T20:59:15.588Z,49.10
2017-06-29T21:01:45.586Z,49.20
2017-06-29T21:04:14.066Z,49.30
2017-06-29T21:06:42.553Z,49.20
2017-06-29T21:09:11.952Z,49.30
2017-06-29T21:11:41.176Z,49.50
2017-06-29T21:14:09.699Z,49.40
2017-06-29T21:16:38.144Z,49.40
2017-06-29T21:19:06.602Z,49.40
2017-06-29T21:21:35.179Z,49.50
2017-06-29T21:24:03.642Z,50.30
2017-06-29T21:26:32.136Z,49.60
2017-06-29T21:29:01.535Z,49.60
2017-06-29T21:31:30.012Z,49.60
2017-06-29T21:33:59.320Z,49.70
2017-06-29T21:36:27.857Z,49.70
2017-06-29T21:38:56.330Z,49.80
2017-06-29T21:41:24.649Z,49.80
2017-06-29T21:43:54.015Z,49.80
2017-06-29T21:46:22.488Z,49.90
2017-06-29T21:48:51.007Z,49.90
2017-06-29T21:51:19.583Z,49.90
2017-06-29T21:53:48.017Z,49.90
2017-06-29T21:56:16.607Z,50.00
2017-06-29T21:58:45.146Z,50.00
2017-06-29T22:01:13.652Z,50.00
2017-06-29T22:03:42.099Z,50.00
2017-06-29T22:06:11.577Z,50.00
2017-06-29T22:08:40.914Z,50.00
2017-06-29T22:11:09.347Z,50.00
2017-06-29T22:13:38.694Z,50.10
2017-06-29T22:16:07.385Z,50.00
2017-06-29T22:18:35.958Z,50.00
2017-06-29T22:21:04.675Z,50.00
2017-06-29T22:23:33.148Z,50.00
2017-06-29T22:26:02.493Z,50.00
2017-06-29T22:28:30.972Z,50.00
2017-06-29T22:30:59.555Z,50.00
2017-06-29T22:33:28.121Z,50.00
2017-06-29T22:35:56.577Z,50.00
2017-06-29T22:38:25.025Z,50.10
2017-06-29T22:40:53.508Z,50.00
2017-06-29T22:43:21.930Z,50.00
2017-06-29T22:45:51.330Z,50.60
2017-06-29T22:48:19.895Z,49.90
2017-06-29T22:50:48.320Z,49.90
2017-06-29T22:53:16.780Z,50.00
2017-06-29T22:55:45.461Z,50.00
2017-06-29T22:58:14.046Z,49.90
2017-06-29T23:00:42.136Z,50.00
2017-06-29T23:03:10.623Z,50.00
2017-06-29T23:05:39.282Z,50.00
2017-06-29T23:08:07.815Z,49.90
2017-06-29T23:10:36.347Z,49.90
2017-06-29T23:13:04.771Z,49.80
2017-06-29T23:15:33.246Z,49.80
2017-06-29T23:18:02.098Z,49.80
2017-06-29T23:20:30.853Z,49.80
2017-06-29T23:22:59.284Z,49.80
2017-06-29T23:25:27.847Z,49.60
2017-06-29T23:27:56.268Z,49.60
2017-06-29T23:30:24.869Z,49.60
2017-06-29T23:32:53.339Z,49.50
2017-06-29T23:35:21.989Z,49.60
2017-06-29T23:37:50.486Z,49.50
2017-06-29T23:40:18.918Z,49.50
2017-06-29T23:42:47.547Z,49.60
2017-06-29T23:45:16.768Z,50.40
2017-06-29T23:47:45.197Z,49.60
2017-06-29T23:50:13.876Z,49.70
2017-06-29T23:52:42.551Z,49.70
2017-06-29T23:55:11.034Z,49.70
2017-06-29T23:57:39.629Z,49.60
